createdAt,value
2023-02-22T00:00:29.267Z,99.90
2023-02-22T00:01:47.756Z,99.90
2023-02-22T00:02:51.008Z,99.90
2023-02-22T00:03:53.496Z,99.90
2023-02-22T00:04:55.226Z,99.90
2023-02-22T00:05:59.637Z,99.90
2023-02-22T00:07:02.044Z,99.90
2023-02-22T00:08:03.786Z,99.90
2023-02-22T00:09:06.686Z,99.90
2023-02-22T00:10:13.327Z,99.90
2023-02-22T00:11:15.889Z,99.90
2023-02-22T00:12:17.791Z,99.90
2023-02-22T00:13:22.793Z,99.90
2023-02-22T00:14:27.527Z,99.90
2023-02-22T00:15:29.312Z,99.90
2023-02-22T00:16:31.782Z,99.90
2023-02-22T00:17:34.048Z,99.90
2023-02-22T00:18:35.774Z,99.90
2023-02-22T00:19:38.467Z,99.90
2023-02-22T00:20:41.056Z,99.90
2023-02-22T00:21:44.835Z,99.90
2023-02-22T00:22:48.842Z,99.90
2023-02-22T00:23:50.679Z,99.90
2023-02-22T00:24:52.525Z,99.90
2023-02-22T00:25:55.292Z,99.90
2023-02-22T00:26:57.331Z,99.90
2023-02-22T00:27:59.793Z,99.90
2023-02-22T00:29:01.507Z,99.90
2023-02-22T00:30:05.296Z,99.90
2023-02-22T00:31:09.453Z,99.90
2023-02-22T00:32:11.308Z,99.90
2023-02-22T00:33:14.420Z,99.90
2023-02-22T00:34:16.381Z,99.90
2023-02-22T00:35:20.935Z,99.90
2023-02-22T00:36:22.671Z,99.90
2023-02-22T00:37:24.454Z,99.90
2023-02-22T00:38:26.374Z,99.90
2023-02-22T00:39:28.159Z,99.90
2023-02-22T00:40:33.922Z,99.90
2023-02-22T00:41:35.646Z,99.90
2023-02-22T00:42:38.085Z,99.90
2023-02-22T00:43:39.869Z,99.90
2023-02-22T00:44:41.816Z,99.90
2023-02-22T00:45:43.618Z,99.90
2023-02-22T00:46:45.397Z,99.90
2023-02-22T00:47:47.778Z,99.90
2023-02-22T00:48:49.528Z,99.90
2023-02-22T00:49:51.256Z,99.90
2023-02-22T00:50:55.194Z,99.90
2023-02-22T00:51:57.309Z,99.90
2023-02-22T00:53:01.039Z,99.90
2023-02-22T00:54:02.933Z,99.90
2023-02-22T00:55:10.166Z,99.90
2023-02-22T00:56:12.065Z,99.90
2023-02-22T00:57:13.923Z,99.90
2023-02-22T00:58:15.657Z,99.90
2023-02-22T00:59:17.407Z,99.90
2023-02-22T01:00:24.039Z,99.90
2023-02-22T01:01:25.818Z,99.90
2023-02-22T01:02:28.317Z,99.90
2023-02-22T01:03:32.200Z,99.90
2023-02-22T01:04:34.084Z,99.90
2023-02-22T01:05:35.978Z,99.90
2023-02-22T01:06:37.829Z,99.90
2023-02-22T01:07:40.860Z,99.90
2023-02-22T01:08:45.488Z,99.90
2023-02-22T01:09:47.570Z,99.90
2023-02-22T01:10:49.535Z,99.90
2023-02-22T01:11:55.901Z,99.90
2023-02-22T01:12:58.532Z,99.90
2023-02-22T01:14:00.505Z,99.90
2023-02-22T01:15:04.680Z,99.90
2023-02-22T01:16:08.305Z,99.90
2023-02-22T01:17:10.186Z,99.90
2023-02-22T01:18:12.915Z,99.90
2023-02-22T01:19:14.673Z,99.90
2023-02-22T01:20:17.632Z,99.90
2023-02-22T01:21:19.860Z,99.90
2023-02-22T01:22:22.704Z,99.90
2023-02-22T01:23:24.457Z,99.90
2023-02-22T01:24:26.516Z,99.90
2023-02-22T01:25:30.086Z,99.90
2023-02-22T01:26:31.962Z,99.90
2023-02-22T01:27:34.996Z,99.90
2023-02-22T01:28:38.240Z,99.90
2023-02-22T01:29:40.024Z,99.90
2023-02-22T01:30:41.976Z,99.90
2023-02-22T01:31:50.347Z,99.90
2023-02-22T01:32:52.958Z,99.90
2023-02-22T01:33:54.746Z,99.90
2023-02-22T01:34:56.588Z,99.90
2023-02-22T01:35:59.622Z,99.90
2023-02-22T01:37:01.775Z,99.90
2023-02-22T01:38:03.517Z,99.90
2023-02-22T01:39:05.447Z,99.90
2023-02-22T01:40:37.591Z,99.90
2023-02-22T01:41:39.451Z,99.90
2023-02-22T01:42:41.175Z,99.90
2023-02-22T01:43:42.927Z,99.90
2023-02-22T01:44:44.690Z,99.90
2023-02-22T01:45:58.369Z,99.90
2023-02-22T01:47:02.230Z,99.90
2023-02-22T01:48:12.870Z,99.90
2023-02-22T01:49:15.297Z,99.90
2023-02-22T01:50:17.177Z,99.90
2023-02-22T01:51:24.236Z,99.90
2023-02-22T01:52:26.449Z,99.90
2023-02-22T01:53:36.914Z,99.90
2023-02-22T01:54:46.254Z,99.90
2023-02-22T01:55:49.000Z,99.90
2023-02-22T01:57:00.867Z,99.90
2023-02-22T01:58:04.273Z,99.90
2023-02-22T01:59:09.705Z,99.90
2023-02-22T02:00:16.889Z,99.90
2023-02-22T02:01:21.004Z,99.90
2023-02-22T02:02:25.120Z,99.90
2023-02-22T02:03:33.200Z,99.90
2023-02-22T02:04:36.376Z,99.90
2023-02-22T02:05:39.093Z,99.90
2023-02-22T02:06:42.265Z,99.90
2023-02-22T02:07:46.563Z,99.90
2023-02-22T02:08:52.805Z,99.90
2023-02-22T02:09:59.173Z,99.90
2023-02-22T02:11:03.227Z,99.90
2023-02-22T02:12:06.483Z,99.90
2023-02-22T02:13:10.085Z,99.90
2023-02-22T02:14:12.380Z,99.90
2023-02-22T02:15:28.942Z,99.90
2023-02-22T02:16:42.066Z,99.90
2023-02-22T02:17:44.195Z,99.90
2023-02-22T02:18:45.987Z,99.90
2023-02-22T02:20:21.651Z,99.90
2023-02-22T02:21:40.501Z,99.90
2023-02-22T02:22:53.791Z,99.90
2023-02-22T02:24:04.892Z,99.90
2023-02-22T02:25:27.928Z,99.90
2023-02-22T02:26:54.169Z,99.90
2023-02-22T02:28:14.224Z,99.90
2023-02-22T02:29:34.556Z,99.90
2023-02-22T02:31:11.101Z,99.90
2023-02-22T02:32:19.115Z,99.90
2023-02-22T02:33:25.642Z,99.90
2023-02-22T02:34:44.419Z,99.90
2023-02-22T02:36:14.273Z,99.90
2023-02-22T02:37:33.268Z,99.90
2023-02-22T02:38:46.789Z,99.90
2023-02-22T02:40:17.867Z,99.90
2023-02-22T02:41:31.002Z,99.90
2023-02-22T02:42:42.522Z,99.90
2023-02-22T02:44:17.543Z,99.90
2023-02-22T02:45:24.765Z,99.90
2023-02-22T02:46:51.697Z,99.90
2023-02-22T02:47:58.788Z,99.90
2023-02-22T02:49:08.759Z,99.90
2023-02-22T02:50:23.349Z,99.90
2023-02-22T02:51:31.289Z,99.90
2023-02-22T02:52:35.344Z,99.90
2023-02-22T02:53:41.204Z,99.90
2023-02-22T02:54:45.705Z,99.90
2023-02-22T02:55:47.460Z,99.90
2023-02-22T02:56:50.315Z,99.90
2023-02-22T02:57:52.604Z,99.90
2023-02-22T02:58:54.555Z,99.90
2023-02-22T02:59:56.276Z,99.90
2023-02-22T03:01:01.570Z,99.90
2023-02-22T03:02:40.793Z,99.90
2023-02-22T03:03:59.283Z,99.90
2023-02-22T03:05:19.584Z,99.90
2023-02-22T03:07:07.091Z,99.90
2023-02-22T03:08:30.024Z,99.90
2023-02-22T03:09:58.473Z,99.90
2023-02-22T03:11:15.153Z,99.90
2023-02-22T03:12:27.708Z,99.90
2023-02-22T03:13:51.196Z,99.90
2023-02-22T03:15:03.277Z,99.90
2023-02-22T03:16:23.728Z,99.90
2023-02-22T03:17:56.343Z,99.90
2023-02-22T03:19:19.533Z,99.90
2023-02-22T03:20:56.190Z,99.90
2023-02-22T03:22:20.700Z,99.90
2023-02-22T03:23:34.271Z,99.90
2023-02-22T03:24:42.419Z,99.90
2023-02-22T03:25:50.024Z,99.90
2023-02-22T03:27:02.818Z,99.90
2023-02-22T03:28:11.450Z,99.90
2023-02-22T03:29:17.019Z,99.90
2023-02-22T03:30:40.564Z,99.90
2023-02-22T03:31:48.615Z,99.90
2023-02-22T03:32:59.164Z,99.90
2023-02-22T03:34:07.907Z,99.90
2023-02-22T03:35:18.591Z,99.90
2023-02-22T03:36:28.310Z,99.90
2023-02-22T03:37:34.658Z,99.90
2023-02-22T03:38:38.477Z,99.90
2023-02-22T03:39:43.323Z,99.90
2023-02-22T03:40:48.931Z,99.90
2023-02-22T03:41:53.618Z,99.90
2023-02-22T03:43:01.927Z,99.90
2023-02-22T03:44:09.421Z,99.90
2023-02-22T03:45:13.902Z,99.90
2023-02-22T03:46:17.048Z,99.90
2023-02-22T03:47:23.177Z,99.90
2023-02-22T03:48:39.500Z,99.90
2023-02-22T03:49:52.160Z,99.90
2023-02-22T03:50:53.970Z,99.90
2023-02-22T03:51:56.433Z,99.90
2023-02-22T03:52:59.114Z,99.90
2023-02-22T03:54:01.114Z,99.90
2023-02-22T03:55:04.485Z,99.90
2023-02-22T03:56:10.379Z,99.90
2023-02-22T03:57:24.725Z,99.90
2023-02-22T03:58:31.519Z,99.90
2023-02-22T03:59:34.174Z,99.90
2023-02-22T04:00:36.221Z,99.90
2023-02-22T04:01:38.100Z,99.90
2023-02-22T04:02:40.886Z,99.90
2023-02-22T04:03:42.778Z,99.90
2023-02-22T04:04:45.584Z,99.90
2023-02-22T04:05:47.491Z,99.90
2023-02-22T04:06:49.707Z,99.90
2023-02-22T04:07:53.222Z,99.90
2023-02-22T04:08:55.042Z,99.90
2023-02-22T04:09:56.786Z,99.90
2023-02-22T04:10:58.716Z,99.90
2023-02-22T04:12:00.469Z,99.90
2023-02-22T04:13:02.328Z,99.90
2023-02-22T04:14:04.111Z,99.90
2023-02-22T04:15:07.469Z,99.90
2023-02-22T04:16:09.302Z,99.90
2023-02-22T04:17:11.029Z,99.90
2023-02-22T04:18:14.089Z,99.90
2023-02-22T04:19:15.900Z,99.90
2023-02-22T04:20:19.954Z,99.90
2023-02-22T04:21:21.893Z,99.90
2023-02-22T04:22:23.630Z,99.90
2023-02-22T04:23:26.928Z,99.90
2023-02-22T04:24:30.548Z,99.90
2023-02-22T04:25:32.883Z,99.90
2023-02-22T04:26:34.647Z,99.90
2023-02-22T04:27:36.502Z,99.90
2023-02-22T04:28:38.233Z,99.90
2023-02-22T04:29:39.977Z,99.90
2023-02-22T04:30:41.855Z,99.90
2023-02-22T04:31:43.749Z,99.90
2023-02-22T04:32:45.566Z,99.90
2023-02-22T04:33:47.463Z,99.90
2023-02-22T04:34:49.175Z,99.90
2023-02-22T04:35:51.652Z,99.90
2023-02-22T04:36:53.480Z,99.90
2023-02-22T04:37:55.308Z,99.90
2023-02-22T04:38:57.693Z,99.90
2023-02-22T04:39:59.443Z,99.90
2023-02-22T04:41:01.190Z,99.90
2023-02-22T04:42:03.027Z,99.90
2023-02-22T04:43:04.758Z,99.90
2023-02-22T04:44:06.555Z,99.90
2023-02-22T04:45:09.593Z,99.90
2023-02-22T04:46:12.354Z,99.90
2023-02-22T04:47:14.904Z,99.90
2023-02-22T04:48:17.074Z,99.90
2023-02-22T04:49:18.837Z,99.90
2023-02-22T04:50:20.752Z,99.90
2023-02-22T04:51:22.523Z,99.90
2023-02-22T04:52:24.614Z,99.90
2023-02-22T04:53:26.320Z,99.90
2023-02-22T04:54:28.049Z,99.90
2023-02-22T04:55:29.902Z,99.90
2023-02-22T04:56:31.670Z,99.90
2023-02-22T04:57:33.823Z,99.90
2023-02-22T04:58:35.581Z,99.90
2023-02-22T04:59:37.474Z,99.90
2023-02-22T05:00:39.276Z,99.90
2023-02-22T05:01:41.197Z,99.90
2023-02-22T05:02:43.020Z,99.90
2023-02-22T05:03:44.762Z,99.90
2023-02-22T05:04:46.691Z,99.90
2023-02-22T05:05:48.738Z,99.90
2023-02-22T05:06:50.904Z,99.90
2023-02-22T05:07:53.650Z,99.90
2023-02-22T05:08:55.487Z,99.90
2023-02-22T05:09:57.222Z,99.90
2023-02-22T05:10:59.002Z,99.90
2023-02-22T05:12:00.724Z,99.90
2023-02-22T05:13:04.100Z,99.90
2023-02-22T05:14:07.827Z,99.90
2023-02-22T05:15:10.029Z,99.90
2023-02-22T05:16:12.087Z,99.90
2023-02-22T05:17:14.056Z,99.90
2023-02-22T05:18:15.848Z,99.90
2023-02-22T05:19:17.575Z,99.90
2023-02-22T05:20:28.983Z,99.90
2023-02-22T05:21:30.768Z,99.90
2023-02-22T05:22:32.528Z,99.90
2023-02-22T05:23:34.693Z,99.90
2023-02-22T05:24:36.411Z,99.90
2023-02-22T05:25:38.679Z,99.90
2023-02-22T05:26:40.464Z,99.90
2023-02-22T05:27:42.219Z,99.90
2023-02-22T05:28:43.924Z,99.90
2023-02-22T05:29:46.147Z,99.90
2023-02-22T05:30:47.922Z,99.90
2023-02-22T05:31:49.758Z,99.90
2023-02-22T05:32:52.541Z,99.90
2023-02-22T05:33:54.243Z,99.90
2023-02-22T05:34:55.968Z,99.90
2023-02-22T05:35:57.724Z,99.90
2023-02-22T05:36:59.458Z,99.90
2023-02-22T05:38:03.206Z,99.90
2023-02-22T05:39:05.479Z,99.90
2023-02-22T05:40:07.821Z,99.90
2023-02-22T05:41:11.185Z,99.90
2023-02-22T05:42:12.930Z,99.90
2023-02-22T05:43:15.806Z,99.90
2023-02-22T05:44:17.602Z,99.90
2023-02-22T05:45:21.986Z,99.90
2023-02-22T05:46:23.851Z,99.90
2023-02-22T05:47:26.141Z,99.90
2023-02-22T05:48:27.876Z,99.90
2023-02-22T05:49:29.643Z,99.90
2023-02-22T05:50:33.114Z,99.90
2023-02-22T05:51:35.075Z,99.90
2023-02-22T05:52:37.138Z,99.90
2023-02-22T05:53:38.886Z,99.90
2023-02-22T05:54:40.643Z,99.90
2023-02-22T05:55:42.393Z,99.90
2023-02-22T05:56:44.136Z,99.90
2023-02-22T05:57:46.613Z,99.90
2023-02-22T05:58:48.399Z,99.90
2023-02-22T05:59:50.151Z,99.90
2023-02-22T06:00:52.092Z,99.90
2023-02-22T06:01:53.848Z,99.90
2023-02-22T06:03:08.052Z,99.90
2023-02-22T06:04:09.792Z,99.90
2023-02-22T06:05:11.785Z,99.90
2023-02-22T06:06:13.555Z,99.90
2023-02-22T06:07:15.526Z,99.90
2023-02-22T06:08:18.071Z,99.90
2023-02-22T06:09:19.801Z,99.90
2023-02-22T06:10:22.047Z,99.90
2023-02-22T06:11:23.764Z,99.90
2023-02-22T06:12:25.556Z,99.90
2023-02-22T06:13:27.327Z,99.90
2023-02-22T06:14:29.281Z,99.90
2023-02-22T06:15:31.362Z,99.90
2023-02-22T06:16:33.206Z,99.90
2023-02-22T06:17:34.981Z,99.90
2023-02-22T06:18:36.706Z,99.90
2023-02-22T06:19:38.989Z,99.90
2023-02-22T06:20:41.474Z,99.90
2023-02-22T06:21:50.068Z,99.90
2023-02-22T06:22:54.139Z,99.90
2023-02-22T06:23:55.909Z,99.90
2023-02-22T06:24:57.644Z,99.90
2023-02-22T06:25:59.423Z,99.90
2023-02-22T06:27:02.603Z,99.90
2023-02-22T06:28:04.622Z,99.90
2023-02-22T06:29:06.358Z,99.90
2023-02-22T06:30:11.267Z,99.90
2023-02-22T06:31:15.114Z,99.90
2023-02-22T06:32:17.131Z,99.90
2023-02-22T06:33:18.924Z,99.90
2023-02-22T06:34:24.411Z,99.90
2023-02-22T06:35:26.358Z,99.90
2023-02-22T06:36:28.393Z,99.90
2023-02-22T06:37:30.272Z,99.90
2023-02-22T06:38:32.412Z,99.90
2023-02-22T06:39:34.158Z,99.90
2023-02-22T06:40:37.125Z,99.90
2023-02-22T06:41:39.248Z,99.90
2023-02-22T06:42:41.632Z,99.90
2023-02-22T06:43:43.557Z,99.90
2023-02-22T06:44:45.396Z,99.90
2023-02-22T06:45:47.280Z,99.90
2023-02-22T06:46:52.899Z,99.90
2023-02-22T06:47:55.614Z,99.90
2023-02-22T06:48:59.487Z,99.90
2023-02-22T06:50:01.238Z,99.90
2023-02-22T06:51:03.020Z,99.90
2023-02-22T06:52:06.585Z,99.90
2023-02-22T06:53:09.198Z,99.90
2023-02-22T06:54:10.945Z,99.90
2023-02-22T06:55:16.153Z,99.90
2023-02-22T06:56:17.939Z,99.90
2023-02-22T06:57:19.701Z,99.90
2023-02-22T06:58:21.483Z,99.90
2023-02-22T06:59:23.593Z,99.90
2023-02-22T07:00:27.054Z,99.90
2023-02-22T07:01:29.133Z,99.90
2023-02-22T07:02:30.863Z,99.90
2023-02-22T07:03:32.621Z,99.90
2023-02-22T07:04:35.598Z,99.90
2023-02-22T07:05:38.777Z,99.90
2023-02-22T07:06:46.950Z,99.90
2023-02-22T07:07:52.594Z,99.90
2023-02-22T07:08:54.785Z,99.90
2023-02-22T07:09:56.536Z,99.90
2023-02-22T07:10:58.376Z,99.90
2023-02-22T07:12:00.128Z,99.90
2023-02-22T07:13:02.424Z,99.90
2023-02-22T07:14:04.229Z,99.90
2023-02-22T07:15:06.382Z,99.90
2023-02-22T07:16:08.126Z,99.90
2023-02-22T07:17:11.465Z,99.90
2023-02-22T07:18:14.095Z,99.90
2023-02-22T07:19:15.918Z,99.90
2023-02-22T07:20:20.512Z,99.90
2023-02-22T07:21:22.491Z,99.90
2023-02-22T07:22:24.317Z,99.90
2023-02-22T07:23:27.040Z,99.90
2023-02-22T07:24:29.120Z,99.90
2023-02-22T07:25:30.963Z,99.90
2023-02-22T07:26:40.499Z,99.90
2023-02-22T07:27:43.144Z,99.90
2023-02-22T07:28:44.945Z,99.90
2023-02-22T07:29:46.841Z,99.90
2023-02-22T07:30:48.651Z,99.90
2023-02-22T07:31:51.089Z,99.90
2023-02-22T07:32:54.869Z,99.90
2023-02-22T07:33:57.268Z,99.90
2023-02-22T07:34:59.191Z,99.90
2023-02-22T07:36:00.936Z,99.90
2023-02-22T07:37:02.713Z,99.90
2023-02-22T07:38:10.713Z,99.90
2023-02-22T07:39:12.549Z,99.90
2023-02-22T07:40:15.314Z,99.90
2023-02-22T07:41:17.399Z,99.90
2023-02-22T07:42:19.301Z,99.90
2023-02-22T07:43:29.145Z,99.90
2023-02-22T07:44:31.020Z,99.90
2023-02-22T07:45:35.140Z,99.90
2023-02-22T07:46:36.910Z,99.90
2023-02-22T07:47:38.827Z,99.90
2023-02-22T07:48:41.039Z,99.90
2023-02-22T07:49:42.847Z,99.90
2023-02-22T07:50:45.056Z,99.90
2023-02-22T07:51:46.825Z,99.90
2023-02-22T07:52:50.316Z,99.90
2023-02-22T07:53:52.128Z,99.90
2023-02-22T07:54:53.852Z,99.90
2023-02-22T07:55:58.549Z,99.90
2023-02-22T07:57:00.278Z,99.90
2023-02-22T07:58:05.259Z,99.90
2023-02-22T07:59:07.013Z,99.90
2023-02-22T08:00:09.548Z,99.90
2023-02-22T08:01:11.333Z,99.90
2023-02-22T08:02:17.269Z,99.90
2023-02-22T08:03:21.086Z,99.90
2023-02-22T08:04:22.842Z,99.90
2023-02-22T08:05:26.113Z,99.90
2023-02-22T08:06:28.301Z,99.90
2023-02-22T08:07:30.130Z,99.90
2023-02-22T08:08:31.911Z,99.90
2023-02-22T08:09:33.712Z,99.90
2023-02-22T08:10:36.367Z,99.90
2023-02-22T08:11:38.151Z,99.90
2023-02-22T08:12:40.011Z,99.90
2023-02-22T08:13:41.768Z,99.90
2023-02-22T08:14:43.564Z,99.90
2023-02-22T08:15:47.195Z,99.90
2023-02-22T08:16:49.050Z,99.90
2023-02-22T08:17:51.851Z,99.90
2023-02-22T08:18:53.645Z,99.90
2023-02-22T08:19:55.421Z,99.90
2023-02-22T08:20:57.469Z,99.90
2023-02-22T08:21:59.172Z,99.90
2023-02-22T08:23:01.455Z,99.90
2023-02-22T08:24:03.341Z,99.90
2023-02-22T08:25:06.405Z,99.90
2023-02-22T08:26:10.920Z,99.90
2023-02-22T08:27:12.781Z,99.90
2023-02-22T08:28:17.451Z,99.90
2023-02-22T08:29:19.260Z,99.90
2023-02-22T08:30:23.198Z,99.90
2023-02-22T08:31:25.086Z,99.90
2023-02-22T08:32:27.163Z,99.90
2023-02-22T08:33:29.201Z,99.90
2023-02-22T08:34:31.008Z,99.90
2023-02-22T08:35:33.552Z,99.90
2023-02-22T08:36:35.405Z,99.90
2023-02-22T08:37:37.244Z,99.90
2023-02-22T08:38:38.998Z,99.90
2023-02-22T08:39:40.929Z,99.90
2023-02-22T08:40:42.748Z,99.90
2023-02-22T08:41:44.597Z,99.90
2023-02-22T08:42:46.528Z,99.90
2023-02-22T08:43:48.307Z,99.90
2023-02-22T08:44:50.073Z,99.90
2023-02-22T08:45:52.649Z,99.90
2023-02-22T08:46:55.199Z,99.90
2023-02-22T08:47:57.791Z,99.90
2023-02-22T08:48:59.596Z,99.90
2023-02-22T08:50:01.714Z,99.90
2023-02-22T08:51:03.634Z,99.90
2023-02-22T08:52:05.737Z,99.90
2023-02-22T08:53:08.696Z,99.90
2023-02-22T08:54:10.453Z,99.90
2023-02-22T08:55:12.602Z,99.90
2023-02-22T08:56:14.357Z,99.90
2023-02-22T08:57:16.166Z,99.90
2023-02-22T08:58:17.988Z,99.90
2023-02-22T08:59:19.724Z,99.90
2023-02-22T09:00:25.325Z,99.90
2023-02-22T09:01:33.461Z,99.90
2023-02-22T09:02:35.447Z,99.90
2023-02-22T09:03:37.303Z,99.90
2023-02-22T09:04:39.058Z,99.90
2023-02-22T09:05:45.010Z,99.90
2023-02-22T09:06:51.713Z,99.90
2023-02-22T09:07:53.518Z,99.90
2023-02-22T09:08:55.448Z,99.90
2023-02-22T09:09:57.224Z,99.90
2023-02-22T09:10:59.186Z,99.90
2023-02-22T09:12:00.960Z,99.90
2023-02-22T09:13:04.154Z,99.90
2023-02-22T09:14:05.886Z,99.90
2023-02-22T09:15:08.030Z,99.90
2023-02-22T09:16:09.843Z,99.90
2023-02-22T09:17:11.590Z,99.90
2023-02-22T09:18:14.660Z,99.90
2023-02-22T09:19:16.536Z,99.90
2023-02-22T09:20:20.843Z,99.90
2023-02-22T09:21:22.578Z,99.90
2023-02-22T09:22:24.317Z,99.90
2023-02-22T09:23:27.314Z,99.90
2023-02-22T09:24:29.164Z,99.90
2023-02-22T09:25:31.309Z,99.90
2023-02-22T09:26:33.252Z,99.90
2023-02-22T09:27:35.009Z,99.90
2023-02-22T09:28:37.048Z,99.90
2023-02-22T09:29:39.493Z,99.90
2023-02-22T09:30:41.312Z,99.90
2023-02-22T09:31:43.242Z,99.90
2023-02-22T09:32:45.185Z,99.90
2023-02-22T09:33:47.549Z,99.90
2023-02-22T09:34:49.344Z,99.90
2023-02-22T09:35:51.123Z,99.90
2023-02-22T09:36:52.821Z,99.90
2023-02-22T09:38:00.068Z,99.90
2023-02-22T09:39:02.038Z,99.90
2023-02-22T09:40:09.733Z,99.90
2023-02-22T09:41:25.288Z,99.90
2023-02-22T09:42:35.948Z,99.90
2023-02-22T09:43:54.291Z,99.90
2023-02-22T09:45:01.292Z,99.90
2023-02-22T09:46:13.595Z,99.90
2023-02-22T09:47:35.397Z,99.90
2023-02-22T09:48:51.359Z,99.90
2023-02-22T09:50:05.333Z,99.90
2023-02-22T09:51:15.146Z,99.90
2023-02-22T09:52:41.438Z,99.90
2023-02-22T09:53:49.756Z,99.90
2023-02-22T09:55:07.073Z,99.90
2023-02-22T09:56:12.128Z,99.90
2023-02-22T09:57:19.743Z,99.90
2023-02-22T09:58:28.543Z,99.90
2023-02-22T09:59:35.434Z,99.90
2023-02-22T10:00:40.318Z,99.90
2023-02-22T10:01:48.716Z,99.90
2023-02-22T10:03:00.179Z,99.90
2023-02-22T10:04:30.874Z,99.90
2023-02-22T10:05:42.915Z,99.90
2023-02-22T10:06:53.932Z,99.90
2023-02-22T10:08:05.916Z,99.90
2023-02-22T10:09:10.962Z,99.90
2023-02-22T10:10:21.011Z,99.90
2023-02-22T10:11:48.646Z,99.90
2023-02-22T10:12:56.363Z,99.90
2023-02-22T10:14:05.808Z,99.90
2023-02-22T10:15:21.790Z,99.90
2023-02-22T10:16:41.973Z,99.90
2023-02-22T10:18:13.557Z,99.90
2023-02-22T10:19:41.244Z,99.90
2023-02-22T10:21:02.576Z,99.90
2023-02-22T10:22:07.732Z,99.90
2023-02-22T10:23:29.219Z,99.90
2023-02-22T10:24:51.684Z,99.90
2023-02-22T10:26:02.529Z,99.90
2023-02-22T10:27:25.674Z,99.90
2023-02-22T10:28:40.514Z,99.90
2023-02-22T10:29:46.557Z,99.90
2023-02-22T10:30:56.692Z,99.90
2023-02-22T10:32:02.110Z,99.90
2023-02-22T10:33:17.356Z,99.90
2023-02-22T10:34:28.230Z,99.90
2023-02-22T10:35:34.958Z,99.90
2023-02-22T10:36:39.116Z,99.90
2023-02-22T10:37:40.907Z,99.90
2023-02-22T10:38:48.850Z,99.90
2023-02-22T10:39:54.058Z,99.90
2023-02-22T10:41:01.712Z,99.90
2023-02-22T10:42:09.174Z,99.90
2023-02-22T10:43:11.680Z,99.90
2023-02-22T10:44:13.510Z,99.90
2023-02-22T10:45:26.694Z,99.90
2023-02-22T10:46:30.501Z,99.90
2023-02-22T10:47:33.797Z,99.90
2023-02-22T10:48:40.114Z,99.90
2023-02-22T10:49:47.183Z,99.90
2023-02-22T10:50:50.470Z,99.90
2023-02-22T10:52:01.630Z,99.90
2023-02-22T10:53:03.801Z,99.90
2023-02-22T10:54:24.437Z,99.90
2023-02-22T10:55:26.225Z,99.90
2023-02-22T10:56:28.603Z,99.90
2023-02-22T10:57:37.442Z,99.90
2023-02-22T10:58:42.131Z,99.90
2023-02-22T10:59:44.814Z,99.90
2023-02-22T11:00:46.806Z,99.90
2023-02-22T11:01:50.006Z,99.90
2023-02-22T11:02:54.920Z,99.90
2023-02-22T11:04:22.982Z,99.90
2023-02-22T11:05:36.666Z,99.90
2023-02-22T11:06:41.722Z,99.90
2023-02-22T11:07:43.477Z,99.90
2023-02-22T11:08:50.209Z,99.90
2023-02-22T11:09:55.312Z,99.90
2023-02-22T11:11:00.969Z,99.90
2023-02-22T11:12:11.544Z,99.90
2023-02-22T11:13:19.182Z,99.90
2023-02-22T11:14:30.012Z,99.90
2023-02-22T11:15:31.945Z,99.90
2023-02-22T11:16:38.246Z,99.90
2023-02-22T11:17:41.090Z,99.90
2023-02-22T11:18:43.130Z,99.90
2023-02-22T11:19:50.017Z,99.90
2023-02-22T11:21:03.541Z,99.90
2023-02-22T11:22:05.246Z,99.90
2023-02-22T11:23:08.263Z,99.90
2023-02-22T11:24:15.451Z,99.90
2023-02-22T11:25:24.905Z,99.90
2023-02-22T11:26:26.736Z,99.90
2023-02-22T11:27:38.589Z,99.90
2023-02-22T11:28:50.088Z,99.90
2023-02-22T11:29:52.641Z,99.90
2023-02-22T11:30:55.499Z,99.90
2023-02-22T11:31:57.595Z,99.90
2023-02-22T11:33:16.888Z,99.90
2023-02-22T11:34:38.901Z,99.90
2023-02-22T11:35:55.348Z,99.90
2023-02-22T11:37:00.125Z,99.90
2023-02-22T11:38:23.757Z,99.90
2023-02-22T11:39:34.546Z,99.90
2023-02-22T11:40:36.377Z,99.90
2023-02-22T11:41:38.186Z,99.90
2023-02-22T11:42:40.007Z,99.90
2023-02-22T11:43:43.576Z,99.90
2023-02-22T11:44:45.302Z,99.90
2023-02-22T11:46:08.239Z,99.90
2023-02-22T11:47:12.345Z,99.90
2023-02-22T11:48:21.030Z,99.90
2023-02-22T11:49:35.436Z,99.90
2023-02-22T11:50:54.585Z,99.90
2023-02-22T11:52:17.386Z,99.90
2023-02-22T11:53:22.127Z,99.90
2023-02-22T11:54:42.591Z,99.90
2023-02-22T11:56:08.022Z,99.90
2023-02-22T11:57:46.804Z,99.90
2023-02-22T11:59:34.326Z,99.90
2023-02-22T12:01:07.042Z,99.90
2023-02-22T12:02:56.958Z,99.70
2023-02-22T12:04:04.984Z,99.90
2023-02-22T12:05:18.415Z,99.90
2023-02-22T12:06:20.198Z,99.90
2023-02-22T12:08:17.376Z,99.90
2023-02-22T12:09:33.187Z,99.90
2023-02-22T12:11:03.462Z,99.90
2023-02-22T12:12:24.569Z,99.90
2023-02-22T12:13:58.796Z,99.80
2023-02-22T12:15:08.779Z,99.90
2023-02-22T12:16:27.345Z,99.80
2023-02-22T12:17:54.239Z,99.90
2023-02-22T12:19:14.033Z,99.80
2023-02-22T12:20:24.838Z,99.70
2023-02-22T12:21:29.820Z,99.90
2023-02-22T12:22:39.782Z,99.90
2023-02-22T12:23:50.688Z,99.20
2023-02-22T12:25:10.371Z,99.20
2023-02-22T12:26:26.026Z,99.30
2023-02-22T12:27:43.656Z,99.80
2023-02-22T12:29:10.064Z,99.80
2023-02-22T12:30:23.663Z,99.50
2023-02-22T12:31:50.704Z,99.80
2023-02-22T12:32:56.272Z,99.70
2023-02-22T12:34:01.094Z,99.90
2023-02-22T12:35:20.757Z,99.90
2023-02-22T12:36:32.400Z,99.90
2023-02-22T12:38:05.250Z,99.90
2023-02-22T12:39:27.353Z,99.90
2023-02-22T12:40:46.030Z,99.60
2023-02-22T12:41:52.533Z,99.90
2023-02-22T12:43:04.684Z,99.90
2023-02-22T12:44:26.238Z,99.50
2023-02-22T12:45:41.176Z,99.60
2023-02-22T12:46:47.963Z,99.90
2023-02-22T12:47:57.669Z,99.90
2023-02-22T12:49:22.520Z,99.50
2023-02-22T12:50:29.389Z,99.80
2023-02-22T12:51:49.901Z,99.50
2023-02-22T12:53:23.602Z,99.80
2023-02-22T12:54:56.448Z,99.70
2023-02-22T12:56:28.711Z,99.80
2023-02-22T12:57:46.430Z,99.90
2023-02-22T12:59:03.565Z,99.80
2023-02-22T13:00:37.472Z,99.80
2023-02-22T13:01:43.337Z,99.70
2023-02-22T13:02:55.498Z,99.40
2023-02-22T13:03:57.396Z,99.20
2023-02-22T13:05:01.325Z,99.20
2023-02-22T13:06:09.336Z,98.60
2023-02-22T13:07:18.426Z,98.90
2023-02-22T13:08:52.793Z,98.80
2023-02-22T13:10:28.364Z,99.20
2023-02-22T13:11:49.978Z,99.60
2023-02-22T13:13:04.687Z,99.80
2023-02-22T13:14:15.606Z,99.80
2023-02-22T13:15:17.332Z,99.60
2023-02-22T13:16:39.224Z,99.50
2023-02-22T13:17:50.882Z,99.60
2023-02-22T13:19:11.348Z,99.70
2023-02-22T13:20:29.166Z,99.60
2023-02-22T13:21:33.607Z,99.90
2023-02-22T13:22:55.199Z,99.90
2023-02-22T13:24:12.524Z,99.80
2023-02-22T13:25:16.396Z,99.80
2023-02-22T13:26:25.924Z,99.40
2023-02-22T13:27:37.587Z,99.50
2023-02-22T13:29:01.228Z,99.10
2023-02-22T13:30:03.823Z,99.20
2023-02-22T13:31:39.207Z,99.30
2023-02-22T13:32:56.537Z,99.80
2023-02-22T13:34:16.597Z,99.90
2023-02-22T13:35:26.089Z,99.60
2023-02-22T13:36:38.675Z,99.10
2023-02-22T13:38:10.204Z,99.70
2023-02-22T13:39:54.589Z,99.90
2023-02-22T13:41:08.383Z,99.60
2023-02-22T13:42:44.154Z,99.20
2023-02-22T13:43:45.839Z,99.20
2023-02-22T13:45:04.041Z,99.40
2023-02-22T13:46:19.125Z,99.90
2023-02-22T13:47:38.437Z,99.40
2023-02-22T13:48:55.112Z,99.40
2023-02-22T13:50:26.639Z,99.90
2023-02-22T13:51:51.046Z,99.50
2023-02-22T13:52:55.953Z,99.60
2023-02-22T13:54:13.953Z,99.30
2023-02-22T13:55:20.673Z,99.50
2023-02-22T13:56:27.965Z,99.40
2023-02-22T13:57:39.437Z,99.30
2023-02-22T13:58:53.157Z,99.20
2023-02-22T14:00:18.111Z,99.40
2023-02-22T14:01:39.667Z,99.90
2023-02-22T14:03:06.735Z,99.90
2023-02-22T14:04:20.529Z,99.90
2023-02-22T14:05:44.606Z,99.30
2023-02-22T14:06:46.531Z,99.80
2023-02-22T14:07:49.497Z,99.80
2023-02-22T14:08:51.329Z,99.90
2023-02-22T14:09:56.133Z,99.80
2023-02-22T14:10:59.255Z,99.90
2023-02-22T14:12:01.050Z,99.90
2023-02-22T14:13:07.505Z,99.70
2023-02-22T14:14:11.206Z,99.50
2023-02-22T14:15:28.648Z,99.50
2023-02-22T14:16:32.269Z,99.70
2023-02-22T14:17:34.226Z,99.50
2023-02-22T14:18:35.951Z,99.60
2023-02-22T14:19:38.302Z,99.40
2023-02-22T14:20:40.402Z,99.40
2023-02-22T14:22:06.716Z,99.60
2023-02-22T14:23:45.533Z,99.90
2023-02-22T14:24:48.546Z,99.90
2023-02-22T14:25:50.945Z,99.90